createdAt,value
2017-10-05T00:00:38.434Z,92.70
2017-10-05T00:03:06.843Z,92.80
2017-10-05T00:05:34.536Z,92.80
2017-10-05T00:08:02.191Z,92.90
2017-10-05T00:10:29.890Z,93.20
2017-10-05T00:12:58.309Z,92.80
2017-10-05T00:15:26.011Z,92.80
2017-10-05T00:17:53.664Z,92.80
2017-10-05T00:20:21.334Z,92.80
2017-10-05T00:22:49.835Z,92.80
2017-10-05T00:25:17.491Z,92.80
2017-10-05T00:27:45.183Z,92.80
2017-10-05T00:30:12.896Z,92.80
2017-10-05T00:32:41.362Z,93.00
2017-10-05T00:35:09.032Z,93.00
2017-10-05T00:37:37.511Z,92.90
2017-10-05T00:40:05.956Z,93.00
2017-10-05T00:42:33.667Z,93.00
2017-10-05T00:45:01.340Z,93.00
2017-10-05T00:47:29.099Z,93.10
2017-10-05T00:49:56.809Z,93.10
2017-10-05T00:52:24.522Z,93.10
2017-10-05T00:54:52.195Z,93.20
2017-10-05T00:57:20.762Z,93.30
2017-10-05T00:59:48.486Z,93.30
2017-10-05T01:02:16.970Z,93.40
2017-10-05T01:04:45.431Z,93.50
2017-10-05T01:07:13.144Z,93.50
2017-10-05T01:09:40.799Z,93.60
2017-10-05T01:12:08.569Z,93.50
2017-10-05T01:14:36.259Z,93.40
2017-10-05T01:17:04.009Z,93.50
2017-10-05T01:19:31.711Z,93.50
2017-10-05T01:22:00.222Z,93.70
2017-10-05T01:24:27.975Z,94.00
2017-10-05T01:26:55.690Z,93.80
2017-10-05T01:29:23.408Z,93.80
2017-10-05T01:31:51.124Z,93.90
2017-10-05T01:34:19.650Z,94.00
2017-10-05T01:36:47.334Z,94.00
2017-10-05T01:39:15.056Z,93.80
2017-10-05T01:41:42.754Z,93.70
2017-10-05T01:44:10.498Z,93.70
2017-10-05T01:46:38.179Z,94.10
2017-10-05T01:49:05.872Z,93.90
2017-10-05T01:51:34.359Z,93.80
2017-10-05T01:54:02.835Z,93.90
2017-10-05T01:56:31.261Z,93.80
2017-10-05T01:58:58.965Z,93.80
2017-10-05T02:01:27.395Z,93.80
2017-10-05T02:03:55.087Z,93.80
2017-10-05T02:06:22.750Z,93.80
2017-10-05T02:08:50.442Z,93.90
2017-10-05T02:11:18.135Z,93.90
2017-10-05T02:13:45.850Z,93.70
2017-10-05T02:16:14.284Z,93.90
2017-10-05T02:18:41.987Z,93.90
2017-10-05T02:21:10.418Z,94.00
2017-10-05T02:23:38.123Z,94.00
2017-10-05T02:26:05.820Z,94.10
2017-10-05T02:28:33.468Z,94.00
2017-10-05T02:31:01.167Z,94.00
2017-10-05T02:33:28.831Z,94.10
2017-10-05T02:35:56.532Z,94.10
2017-10-05T02:38:24.179Z,94.10
2017-10-05T02:40:52.656Z,94.20
2017-10-05T02:43:21.085Z,94.30
2017-10-05T02:45:48.786Z,94.20
2017-10-05T02:48:17.208Z,94.50
2017-10-05T02:50:44.949Z,94.40
2017-10-05T02:53:12.604Z,94.40
2017-10-05T02:55:40.306Z,94.50
2017-10-05T02:58:07.963Z,94.50
2017-10-05T03:00:35.661Z,94.50
2017-10-05T03:03:04.087Z,94.60
2017-10-05T03:05:31.787Z,94.60
2017-10-05T03:07:59.444Z,94.60
2017-10-05T03:10:28.132Z,94.60
2017-10-05T03:12:56.562Z,94.80
2017-10-05T03:15:24.283Z,94.80
2017-10-05T03:17:52.716Z,94.70
2017-10-05T03:20:20.414Z,94.70
2017-10-05T03:22:48.839Z,94.70
2017-10-05T03:25:16.615Z,94.70
2017-10-05T03:27:44.299Z,94.70
2017-10-05T03:30:12.027Z,94.70
2017-10-05T03:32:39.689Z,94.70
2017-10-05T03:35:07.353Z,94.50
2017-10-05T03:37:35.061Z,94.50
2017-10-05T03:40:03.512Z,94.50
2017-10-05T03:42:31.227Z,94.50
2017-10-05T03:44:58.895Z,94.50
2017-10-05T03:47:26.615Z,94.50
2017-10-05T03:49:55.079Z,94.40
2017-10-05T03:52:23.577Z,94.30
2017-10-05T03:54:51.295Z,94.30
2017-10-05T03:57:19.033Z,94.40
2017-10-05T03:59:46.731Z,94.40
2017-10-05T04:02:14.450Z,94.40
2017-10-05T04:04:42.123Z,94.30
2017-10-05T04:07:09.847Z,94.40
2017-10-05T04:09:37.511Z,94.30
2017-10-05T04:12:05.251Z,94.30
2017-10-05T04:14:33.662Z,94.30
2017-10-05T04:17:01.361Z,94.30
2017-10-05T04:19:29.023Z,94.50
2017-10-05T04:21:56.742Z,94.50
2017-10-05T04:24:25.174Z,95.00
2017-10-05T04:26:52.884Z,94.70
2017-10-05T04:29:20.545Z,94.90
2017-10-05T04:31:48.390Z,94.60
2017-10-05T04:34:16.076Z,94.60
2017-10-05T04:36:43.752Z,94.60
2017-10-05T04:39:11.448Z,94.70
2017-10-05T04:41:39.926Z,94.70
2017-10-05T04:44:08.411Z,94.80
2017-10-05T04:46:36.854Z,94.70
2017-10-05T04:49:04.554Z,94.70
2017-10-05T04:51:32.206Z,94.80
2017-10-05T04:54:00.718Z,94.80
2017-10-05T04:56:28.383Z,94.80
2017-10-05T04:58:56.111Z,94.80
2017-10-05T05:01:23.784Z,94.70
2017-10-05T05:03:51.491Z,94.70
2017-10-05T05:06:19.163Z,94.70
2017-10-05T05:08:46.870Z,94.70
2017-10-05T05:11:14.526Z,94.80
2017-10-05T05:13:42.252Z,94.80
2017-10-05T05:16:10.679Z,94.70
2017-10-05T05:18:38.376Z,94.70
2017-10-05T05:21:06.044Z,94.70
2017-10-05T05:23:34.511Z,94.60
2017-10-05T05:26:02.191Z,94.60
2017-10-05T05:28:30.684Z,94.50
2017-10-05T05:30:58.352Z,94.50
2017-10-05T05:33:26.055Z,94.40
2017-10-05T05:35:53.767Z,94.50
2017-10-05T05:38:21.448Z,94.50
2017-10-05T05:40:49.149Z,94.60
2017-10-05T05:43:16.811Z,94.50
2017-10-05T05:45:44.573Z,94.60
2017-10-05T05:48:12.290Z,94.40
2017-10-05T05:50:40.015Z,94.30
2017-10-05T05:53:08.453Z,94.70
2017-10-05T05:55:36.224Z,94.70
2017-10-05T05:58:03.895Z,94.50
2017-10-05T06:00:31.664Z,94.40
2017-10-05T06:03:00.149Z,94.40
2017-10-05T06:05:28.694Z,94.10
2017-10-05T06:07:56.383Z,94.10
2017-10-05T06:10:24.898Z,93.80
2017-10-05T06:12:52.575Z,93.80
2017-10-05T06:15:20.315Z,93.70
2017-10-05T06:17:47.978Z,93.90
2017-10-05T06:20:15.704Z,93.60
2017-10-05T06:22:44.155Z,93.50
2017-10-05T06:27:43.644Z,93.40
2017-10-05T06:30:11.452Z,93.10
2017-10-05T06:32:39.110Z,93.00
2017-10-05T06:35:06.851Z,92.80
2017-10-05T06:37:34.506Z,92.60
2017-10-05T06:40:02.206Z,92.20
2017-10-05T06:42:30.637Z,91.80
2017-10-05T06:44:58.379Z,91.80
2017-10-05T06:47:26.047Z,91.50
2017-10-05T06:49:53.694Z,91.60
2017-10-05T06:52:21.400Z,91.40
2017-10-05T06:54:49.067Z,91.30
2017-10-05T06:57:16.891Z,91.10
2017-10-05T06:59:44.539Z,91.10
2017-10-05T07:02:12.255Z,91.00
2017-10-05T07:04:40.691Z,90.50
2017-10-05T07:07:08.386Z,90.50
2017-10-05T07:09:36.051Z,90.90
2017-10-05T07:12:04.515Z,90.70
2017-10-05T07:14:32.170Z,90.40
2017-10-05T07:16:59.877Z,90.10
2017-10-05T07:19:27.538Z,90.50
2017-10-05T07:21:55.239Z,90.00
2017-10-05T07:24:22.907Z,89.60
2017-10-05T07:26:50.615Z,89.10
2017-10-05T07:29:18.278Z,89.80
2017-10-05T07:31:45.974Z,89.60
2017-10-05T07:34:13.691Z,89.10
2017-10-05T07:36:41.447Z,89.40
2017-10-05T07:39:09.105Z,89.00
2017-10-05T07:41:36.809Z,89.40
2017-10-05T07:44:04.469Z,88.80
2017-10-05T07:46:32.183Z,89.50
2017-10-05T07:48:59.835Z,88.70
2017-10-05T07:51:28.261Z,90.00
2017-10-05T07:53:55.963Z,89.90
2017-10-05T07:56:24.423Z,89.00
2017-10-05T07:58:52.151Z,88.90
2017-10-05T08:01:19.805Z,89.00
2017-10-05T08:03:47.575Z,89.50
2017-10-05T08:06:15.244Z,88.80
2017-10-05T08:08:42.955Z,88.80
2017-10-05T08:11:11.379Z,88.60
2017-10-05T08:13:39.090Z,88.60
2017-10-05T08:16:07.534Z,87.00
2017-10-05T08:18:35.256Z,87.00
2017-10-05T08:21:02.962Z,87.40
2017-10-05T08:23:30.662Z,86.50
2017-10-05T08:25:58.323Z,86.10
2017-10-05T08:28:26.040Z,85.40
2017-10-05T08:30:53.702Z,84.50
2017-10-05T08:33:21.406Z,83.60
2017-10-05T08:35:49.058Z,84.30
2017-10-05T08:38:16.755Z,84.50
2017-10-05T08:40:44.415Z,83.40
2017-10-05T08:43:12.135Z,82.20
2017-10-05T08:45:39.818Z,81.80
2017-10-05T08:48:07.543Z,81.60
2017-10-05T08:50:36.001Z,82.10
2017-10-05T08:53:03.757Z,82.10
2017-10-05T08:55:31.418Z,81.60
2017-10-05T08:57:59.077Z,81.70
2017-10-05T09:00:26.784Z,81.20
2017-10-05T09:02:54.434Z,81.70
2017-10-05T09:05:22.137Z,80.80
2017-10-05T09:07:49.795Z,81.00
2017-10-05T09:10:17.495Z,80.60
2017-10-05T09:12:45.917Z,79.80
2017-10-05T09:15:13.610Z,79.80
2017-10-05T09:17:41.263Z,79.30
2017-10-05T09:20:08.967Z,78.90
2017-10-05T09:22:36.620Z,78.80
2017-10-05T09:25:05.075Z,78.90
2017-10-05T09:27:32.736Z,78.80
2017-10-05T09:30:01.212Z,79.70
2017-10-05T09:32:28.882Z,79.60
2017-10-05T09:34:57.343Z,79.30
2017-10-05T09:37:24.995Z,79.30
2017-10-05T09:39:52.687Z,79.60
2017-10-05T09:42:20.358Z,80.10
2017-10-05T09:44:48.053Z,80.10
2017-10-05T09:47:15.708Z,79.70
2017-10-05T09:49:43.407Z,79.50
2017-10-05T09:52:11.071Z,79.40
2017-10-05T09:54:39.498Z,79.50
2017-10-05T09:57:07.216Z,79.50
2017-10-05T09:59:35.635Z,79.50
2017-10-05T10:02:03.335Z,79.30
2017-10-05T10:04:31.046Z,79.50
2017-10-05T10:06:58.752Z,80.00
2017-10-05T10:09:26.416Z,79.60
2017-10-05T10:11:54.119Z,79.90
2017-10-05T10:14:21.783Z,79.70
2017-10-05T10:16:49.530Z,80.50
2017-10-05T10:19:17.962Z,80.60
2017-10-05T10:21:45.664Z,80.50
2017-10-05T10:24:13.330Z,80.50
2017-10-05T10:26:41.034Z,80.70
2017-10-05T10:29:08.695Z,81.30
2017-10-05T10:31:36.394Z,81.70
2017-10-05T10:34:04.836Z,84.80
2017-10-05T10:36:32.532Z,84.80
2017-10-05T10:39:00.966Z,89.60
2017-10-05T10:41:28.680Z,89.60
2017-10-05T10:43:56.356Z,90.60
2017-10-05T10:46:24.051Z,91.60
2017-10-05T10:48:51.712Z,92.00
2017-10-05T10:51:19.464Z,92.40
2017-10-05T10:53:47.121Z,92.70
2017-10-05T10:56:14.787Z,92.80
2017-10-05T10:58:42.491Z,92.30
2017-10-05T11:01:10.146Z,92.80
2017-10-05T11:03:38.625Z,93.30
2017-10-05T11:06:07.052Z,93.20
2017-10-05T11:08:34.747Z,93.30
2017-10-05T11:11:03.168Z,93.40
2017-10-05T11:13:30.865Z,93.40
2017-10-05T11:15:58.630Z,93.20
2017-10-05T11:18:26.348Z,93.20
2017-10-05T11:20:54.002Z,93.00
2017-10-05T11:23:21.728Z,93.10
2017-10-05T11:25:50.143Z,93.30
2017-10-05T11:28:17.842Z,93.20
2017-10-05T11:30:45.510Z,92.90
2017-10-05T11:33:13.200Z,93.20
2017-10-05T11:35:41.610Z,92.90
2017-10-05T11:38:09.298Z,92.80
2017-10-05T11:40:36.952Z,93.10
2017-10-05T11:43:04.640Z,93.00
2017-10-05T11:45:33.060Z,93.40
2017-10-05T11:48:00.754Z,93.40
2017-10-05T11:50:28.421Z,93.10
2017-10-05T11:52:56.114Z,93.70
2017-10-05T11:55:23.771Z,93.70
2017-10-05T11:57:51.653Z,94.20
2017-10-05T12:00:19.305Z,94.30
2017-10-05T12:02:47.007Z,94.10
2017-10-05T12:05:14.675Z,94.00
2017-10-05T12:07:42.325Z,93.70
2017-10-05T12:10:10.028Z,93.60
2017-10-05T12:12:37.690Z,93.50
2017-10-05T12:15:05.388Z,93.20
2017-10-05T12:17:33.038Z,93.40
2017-10-05T12:20:00.735Z,93.20
2017-10-05T12:22:28.421Z,93.40
2017-10-05T12:24:56.898Z,93.00
2017-10-05T12:27:25.327Z,93.20
2017-10-05T12:29:53.032Z,93.20
2017-10-05T12:32:21.451Z,93.10
2017-10-05T12:34:49.159Z,93.10
2017-10-05T12:37:16.818Z,93.40
2017-10-05T12:39:44.522Z,93.50
2017-10-05T12:42:12.182Z,93.60
2017-10-05T12:44:39.877Z,94.00
2017-10-05T12:47:07.577Z,94.10
2017-10-05T12:49:36.046Z,94.30
2017-10-05T12:52:04.480Z,94.40
2017-10-05T12:54:32.175Z,94.30
2017-10-05T12:57:00.604Z,94.30
2017-10-05T12:59:28.303Z,94.30
2017-10-05T13:01:55.978Z,94.20
2017-10-05T13:04:24.446Z,94.30
2017-10-05T13:06:52.100Z,94.30
2017-10-05T13:09:19.758Z,94.40
2017-10-05T13:11:47.463Z,94.60
2017-10-05T13:14:15.111Z,95.10
2017-10-05T13:16:42.812Z,95.70
2017-10-05T13:19:10.472Z,96.20
2017-10-05T13:21:38.196Z,96.40
2017-10-05T13:24:05.880Z,97.30
2017-10-05T13:26:33.607Z,98.10
2017-10-05T13:29:01.260Z,99.00
2017-10-05T13:31:29.731Z,99.40
2017-10-05T13:33:58.151Z,99.00
2017-10-05T13:36:25.844Z,99.00
2017-10-05T13:38:53.494Z,98.30
2017-10-05T13:41:21.192Z,98.60
2017-10-05T13:43:49.604Z,98.40
2017-10-05T13:46:17.305Z,98.40
2017-10-05T13:48:44.962Z,98.00
2017-10-05T13:51:12.664Z,98.10
2017-10-05T13:53:40.312Z,98.00
2017-10-05T13:56:08.771Z,97.00
2017-10-05T13:58:36.431Z,97.00
2017-10-05T14:01:04.891Z,97.00
2017-10-05T14:03:32.550Z,97.00
2017-10-05T14:06:00.249Z,97.00
2017-10-05T14:08:27.915Z,96.50
2017-10-05T14:10:55.577Z,96.20
2017-10-05T14:13:23.276Z,96.40
2017-10-05T14:15:50.951Z,96.80
2017-10-05T14:18:18.647Z,97.20
2017-10-05T14:20:46.298Z,97.10
2017-10-05T14:23:14.759Z,96.50
2017-10-05T14:25:43.193Z,96.30
2017-10-05T14:28:10.894Z,96.30
2017-10-05T14:30:38.555Z,95.90
2017-10-05T14:33:07.036Z,95.00
2017-10-05T14:35:35.475Z,94.60
2017-10-05T14:38:03.189Z,94.50
2017-10-05T14:40:31.618Z,94.10
2017-10-05T14:42:59.310Z,94.10
2017-10-05T14:45:26.972Z,94.00
2017-10-05T14:47:55.437Z,93.60
2017-10-05T14:50:23.874Z,93.10
2017-10-05T14:52:51.760Z,93.00
2017-10-05T14:55:19.440Z,93.20
2017-10-05T14:57:47.149Z,92.90
2017-10-05T15:00:14.819Z,93.40
2017-10-05T15:02:42.572Z,93.30
2017-10-05T15:05:10.240Z,92.50
2017-10-05T15:07:37.938Z,92.20
2017-10-05T15:10:05.598Z,92.40
2017-10-05T15:12:33.263Z,92.50
2017-10-05T15:15:00.963Z,92.70
2017-10-05T15:17:28.621Z,92.20
2017-10-05T15:19:56.492Z,92.10
2017-10-05T15:22:24.147Z,91.90
2017-10-05T15:24:51.846Z,91.80
2017-10-05T15:27:19.515Z,91.50
2017-10-05T15:29:47.222Z,92.00
2017-10-05T15:32:14.880Z,91.00
2017-10-05T15:34:42.593Z,91.80
2017-10-05T15:37:10.269Z,92.30
2017-10-05T15:39:38.755Z,93.10
2017-10-05T15:42:07.227Z,93.00
2017-10-05T15:44:35.772Z,93.20
2017-10-05T15:47:03.420Z,93.20
2017-10-05T15:49:31.122Z,92.80
2017-10-05T15:51:58.795Z,93.20
2017-10-05T15:54:27.327Z,93.60
2017-10-05T15:56:55.032Z,93.50
2017-10-05T15:59:23.499Z,93.60
2017-10-05T16:01:51.928Z,93.30
2017-10-05T16:04:19.623Z,93.30
2017-10-05T16:06:47.281Z,93.60
2017-10-05T16:09:14.973Z,93.40
2017-10-05T16:11:43.391Z,93.20
2017-10-05T16:14:11.109Z,93.20
2017-10-05T16:16:38.770Z,92.50
2017-10-05T16:19:07.200Z,91.40
2017-10-05T16:21:34.900Z,91.40
2017-10-05T16:24:03.325Z,90.60
2017-10-05T16:26:31.023Z,90.60
2017-10-05T16:28:58.676Z,90.50
2017-10-05T16:31:26.366Z,90.30
2017-10-05T16:33:54.019Z,90.70
2017-10-05T16:36:22.479Z,91.00
2017-10-05T16:38:50.139Z,91.00
2017-10-05T16:41:18.608Z,91.20
2017-10-05T16:43:46.271Z,91.20
2017-10-05T16:46:13.977Z,89.90
2017-10-05T16:48:41.632Z,90.20
2017-10-05T16:51:09.323Z,89.70
2017-10-05T16:53:36.982Z,88.20
2017-10-05T16:56:04.683Z,89.00
2017-10-05T16:58:33.099Z,89.70
2017-10-05T17:01:00.795Z,89.70
2017-10-05T17:03:28.461Z,90.50
2017-10-05T17:05:56.166Z,90.10
2017-10-05T17:08:23.823Z,90.80
2017-10-05T17:10:51.519Z,91.20
2017-10-05T17:13:19.174Z,90.90
2017-10-05T17:15:46.880Z,91.30
2017-10-05T17:18:15.305Z,90.90
2017-10-05T17:20:42.972Z,90.90
2017-10-05T17:23:10.666Z,90.90
2017-10-05T17:25:38.471Z,90.70
2017-10-05T17:28:06.172Z,90.40
2017-10-05T17:30:33.831Z,90.70
2017-10-05T17:33:01.528Z,90.80
2017-10-05T17:35:29.184Z,90.50
2017-10-05T17:37:57.691Z,90.80
2017-10-05T17:40:25.339Z,91.10
2017-10-05T17:42:53.031Z,91.10
2017-10-05T17:45:20.695Z,91.10
2017-10-05T17:47:48.398Z,91.30
2017-10-05T17:50:16.826Z,91.90
2017-10-05T17:52:44.529Z,91.90
2017-10-05T17:55:12.946Z,91.70
2017-10-05T17:57:40.634Z,91.70
2017-10-05T18:00:08.305Z,91.70
2017-10-05T18:02:36.009Z,92.10
2017-10-05T18:05:03.722Z,91.90
2017-10-05T18:07:31.414Z,92.20
2017-10-05T18:09:59.844Z,92.90
2017-10-05T18:12:27.551Z,92.90
2017-10-05T18:14:55.973Z,93.70
2017-10-05T18:17:23.674Z,93.70
2017-10-05T18:19:52.110Z,93.80
2017-10-05T18:22:19.806Z,93.80
2017-10-05T18:24:48.252Z,94.20
2017-10-05T18:27:15.976Z,94.20
2017-10-05T18:29:43.655Z,94.20
2017-10-05T18:32:12.221Z,94.20
2017-10-05T18:34:39.967Z,94.00
2017-10-05T18:37:08.396Z,93.90
2017-10-05T18:39:36.095Z,93.80
2017-10-05T18:42:04.572Z,93.70
2017-10-05T18:44:33.040Z,93.30
2017-10-05T18:47:00.707Z,93.30
2017-10-05T18:49:28.402Z,93.50
2017-10-05T18:51:56.062Z,93.60
2017-10-05T18:54:24.811Z,93.80
2017-10-05T18:56:53.250Z,93.40
2017-10-05T18:59:20.950Z,93.30
2017-10-05T19:01:49.374Z,93.30
2017-10-05T19:04:17.074Z,93.30
2017-10-05T19:06:44.736Z,93.20
2017-10-05T19:09:13.213Z,93.10
2017-10-05T19:11:40.873Z,93.10
2017-10-05T19:14:08.580Z,93.20
2017-10-05T19:16:36.235Z,93.40
2017-10-05T19:19:03.944Z,93.30
2017-10-05T19:21:31.611Z,93.40
2017-10-05T19:24:00.129Z,93.40
2017-10-05T19:26:27.793Z,93.40
2017-10-05T19:28:55.513Z,93.30
2017-10-05T19:31:23.939Z,93.30
2017-10-05T19:33:51.600Z,93.60
2017-10-05T19:36:19.312Z,93.60
2017-10-05T19:38:47.748Z,93.60
2017-10-05T19:41:15.445Z,93.60
2017-10-05T19:43:43.876Z,93.40
2017-10-05T19:46:11.576Z,93.40
2017-10-05T19:48:39.233Z,93.80
2017-10-05T19:51:06.952Z,93.90
2017-10-05T19:53:34.612Z,93.70
2017-10-05T19:56:02.325Z,93.30
2017-10-05T19:58:30.780Z,93.70
2017-10-05T20:01:01.403Z,93.60
2017-10-05T20:03:29.080Z,93.50
2017-10-05T20:05:56.932Z,93.50
2017-10-05T20:08:24.588Z,93.70
2017-10-05T20:10:52.336Z,93.50
2017-10-05T20:13:21.826Z,93.60
2017-10-05T20:16:05.307Z,93.60
2017-10-05T20:18:34.533Z,93.60
2017-10-05T20:21:06.912Z,93.60
2017-10-05T20:23:39.102Z,93.70
2017-10-05T20:26:12.397Z,93.60
2017-10-05T20:28:41.699Z,93.50
2017-10-05T20:31:21.072Z,93.30
2017-10-05T20:33:49.494Z,93.50
2017-10-05T20:36:17.203Z,93.50
2017-10-05T20:38:45.635Z,93.70
2017-10-05T20:41:13.341Z,93.80
2017-10-05T20:43:41.768Z,93.60
2017-10-05T20:46:09.465Z,93.60
2017-10-05T20:48:37.159Z,93.60
2017-10-05T20:51:04.839Z,93.70
2017-10-05T20:53:32.549Z,93.80
2017-10-05T20:56:00.971Z,93.60
2017-10-05T20:58:28.723Z,93.60
2017-10-05T21:00:56.380Z,93.60
2017-10-05T21:03:24.089Z,93.60
2017-10-05T21:05:51.765Z,93.70
2017-10-05T21:08:20.243Z,93.90
2017-10-05T21:10:48.676Z,93.90
2017-10-05T21:13:16.379Z,93.80
2017-10-05T21:15:44.809Z,93.90
2017-10-05T21:18:12.516Z,93.80
2017-10-05T21:20:40.935Z,94.00
2017-10-05T21:23:08.653Z,94.00
2017-10-05T21:25:37.072Z,94.10
2017-10-05T21:28:04.776Z,94.10
2017-10-05T21:30:32.441Z,94.10
2017-10-05T21:33:00.136Z,94.30
2017-10-05T21:35:27.792Z,94.20
2017-10-05T21:37:55.494Z,94.30
2017-10-05T21:40:23.164Z,94.10
2017-10-05T21:42:50.867Z,94.10
2017-10-05T21:45:19.291Z,94.10
2017-10-05T21:47:47.008Z,94.10
2017-10-05T21:50:14.663Z,94.20
2017-10-05T21:52:43.086Z,94.30
2017-10-05T21:55:10.796Z,94.30
2017-10-05T21:57:39.212Z,94.40
2017-10-05T22:00:06.995Z,94.40
2017-10-05T22:02:34.667Z,94.50
2017-10-05T22:05:02.380Z,94.50
2017-10-05T22:07:30.069Z,95.00
2017-10-05T22:09:57.871Z,94.90
2017-10-05T22:12:26.324Z,95.60
2017-10-05T22:14:54.090Z,95.60
2017-10-05T22:17:21.743Z,95.70
2017-10-05T22:19:49.446Z,95.80
2017-10-05T22:22:17.096Z,96.00
2017-10-05T22:24:45.555Z,96.00
2017-10-05T22:27:13.228Z,96.00
2017-10-05T22:29:41.692Z,96.30
2017-10-05T22:32:09.344Z,96.30
2017-10-05T22:34:37.058Z,96.50
2017-10-05T22:37:04.719Z,96.50
2017-10-05T22:39:32.432Z,96.60
2017-10-05T22:42:00.863Z,96.60
2017-10-05T22:44:28.564Z,96.60
2017-10-05T22:46:56.227Z,96.60
2017-10-05T22:49:23.931Z,96.30
2017-10-05T22:51:51.620Z,96.60
2017-10-05T22:54:19.275Z,96.40
2017-10-05T22:56:46.969Z,96.20
2017-10-05T22:59:15.388Z,96.30
2017-10-05T23:01:43.085Z,96.30
2017-10-05T23:04:10.731Z,96.20
2017-10-05T23:06:38.423Z,96.10
2017-10-05T23:09:06.848Z,95.90
2017-10-05T23:11:34.547Z,95.90
2017-10-05T23:14:02.288Z,95.70
2017-10-05T23:16:29.988Z,95.60
2017-10-05T23:18:58.424Z,95.70
2017-10-05T23:21:26.123Z,95.70
2017-10-05T23:23:54.543Z,96.00
2017-10-05T23:26:22.264Z,95.70
2017-10-05T23:28:50.700Z,95.80
2017-10-05T23:31:18.399Z,95.70
2017-10-05T23:33:46.827Z,96.10
2017-10-05T23:36:14.532Z,96.00
2017-10-05T23:38:42.956Z,96.60
2017-10-05T23:41:10.660Z,96.60
2017-10-05T23:43:38.327Z,96.70
2017-10-05T23:46:06.796Z,97.60
2017-10-05T23:48:34.464Z,97.60
2017-10-05T23:51:02.927Z,97.60
2017-10-05T23:53:30.581Z,97.60
2017-10-05T23:55:58.288Z,97.40
2017-10-05T23:58:25.951Z,97.70
